Time;durP1;ratioP1;P1;durP2;ratioP2;P2;SDS_P1;SDS_P2;PMS_P1;PMS_P2;Temp;Humidity;BMP_temperature;BMP_pressure;BME280_temperature;BME280_humidity;BME280_pressure;Samples;Min_cycle;Max_cycle;Signal;HPM_P1;HPM_P2
2022/05/01 00:00:09;;;;;;;14.90;9.13;;;11.20;99.90;;;;;;5112967;28;20170;-57
2022/05/01 00:02:35;;;;;;;15.33;8.63;;;11.20;99.90;;;;;;5112843;28;20622;-57
2022/05/01 00:05:01;;;;;;;17.20;9.13;;;11.10;99.90;;;;;;5112867;28;20171;-57
2022/05/01 00:07:28;;;;;;;16.43;9.13;;;11.10;99.90;;;;;;5112968;28;20199;-57
2022/05/01 00:09:53;;;;;;;15.70;9.30;;;11.20;99.90;;;;;;5112789;28;20218;-57
2022/05/01 00:12:19;;;;;;;17.33;8.80;;;11.20;99.90;;;;;;5112344;28;20159;-57
2022/05/01 00:14:45;;;;;;;13.90;8.73;;;11.20;99.90;;;;;;5112652;28;20584;-56
2022/05/01 00:17:11;;;;;;;18.87;9.30;;;11.10;99.90;;;;;;5112733;28;20179;-57
2022/05/01 00:19:37;;;;;;;15.03;9.37;;;11.10;99.90;;;;;;5112432;28;20251;-56
2022/05/01 00:22:03;;;;;;;16.30;9.20;;;11.00;99.90;;;;;;5112545;28;20218;-56
2022/05/01 00:24:29;;;;;;;15.60;9.50;;;11.00;99.90;;;;;;5112612;28;20159;-56
2022/05/01 00:26:55;;;;;;;20.33;9.50;;;11.00;99.90;;;;;;5112501;28;20178;-56
2022/05/01 00:29:21;;;;;;;17.07;9.53;;;10.90;99.90;;;;;;5112407;28;20221;-56
2022/05/01 00:31:47;;;;;;;17.80;10.13;;;11.00;99.90;;;;;;5112455;28;20596;-56
2022/05/01 00:36:57;;;;;;;16.87;9.93;;;11.00;99.90;;;;;;5112162;28;20165;-56
2022/05/01 00:39:22;;;;;;;20.13;11.57;;;11.00;99.90;;;;;;5112296;28;20175;-57
2022/05/01 00:41:48;;;;;;;16.47;10.17;;;11.10;99.90;;;;;;5112212;28;20183;-56
2022/05/01 00:44:19;;;;;;;16.53;10.37;;;11.10;99.90;;;;;;5112195;28;20257;-57
2022/05/01 00:46:47;;;;;;;21.77;10.27;;;11.00;99.90;;;;;;5112108;28;20175;-57
2022/05/01 00:49:24;;;;;;;18.17;10.17;;;11.00;99.90;;;;;;5111883;28;20233;-56
2022/05/01 00:51:58;;;;;;;18.83;10.53;;;11.00;99.90;;;;;;5112021;28;20685;-60
2022/05/01 00:54:26;;;;;;;21.13;10.73;;;11.00;99.90;;;;;;5111911;28;20218;-56
2022/05/01 00:56:54;;;;;;;21.30;11.13;;;11.00;99.90;;;;;;5110443;28;20599;-57
2022/05/01 00:59:20;;;;;;;15.97;10.50;;;11.10;99.90;;;;;;5111945;28;20171;-57
2022/05/01 01:01:48;;;;;;;23.77;11.37;;;11.10;99.90;;;;;;5111806;28;20174;-57
2022/05/01 01:04:14;;;;;;;23.93;10.53;;;11.10;99.90;;;;;;5111790;28;20231;-57
2022/05/01 01:06:41;;;;;;;20.10;10.23;;;11.10;99.90;;;;;;5111815;28;20174;-57
2022/05/01 01:09:08;;;;;;;28.53;11.00;;;11.10;99.90;;;;;;5111779;28;20209;-56
2022/05/01 01:11:33;;;;;;;20.63;11.03;;;11.00;99.90;;;;;;5110287;28;20235;-58
2022/05/01 01:14:00;;;;;;;18.73;10.43;;;11.00;99.90;;;;;;5111555;28;20171;-56
2022/05/01 01:16:25;;;;;;;24.87;10.80;;;10.90;99.90;;;;;;5111631;28;20162;-56
2022/05/01 01:18:52;;;;;;;19.60;10.50;;;10.90;99.90;;;;;;5111532;28;20168;-56
2022/05/01 01:21:21;;;;;;;20.83;10.77;;;10.90;99.90;;;;;;5111623;28;20790;-57
2022/05/01 01:23:47;;;;;;;19.23;10.30;;;10.90;99.90;;;;;;5110731;28;20175;-57
2022/05/01 01:26:14;;;;;;;20.27;10.77;;;10.90;99.90;;;;;;5111535;28;20214;-57
2022/05/01 01:28:41;;;;;;;19.20;10.80;;;10.90;99.90;;;;;;5111557;28;20167;-57
2022/05/01 01:33:58;;;;;;;21.37;10.83;;;10.90;99.90;;;;;;5111752;28;20190;-57
2022/05/01 01:36:28;;;;;;;20.57;10.00;;;10.90;99.90;;;;;;5111654;28;20183;-57
2022/05/01 01:38:54;;;;;;;16.43;10.03;;;10.90;99.90;;;;;;5111532;28;20178;-57
2022/05/01 01:41:28;;;;;;;22.23;10.63;;;10.90;99.90;;;;;;5111445;28;20171;-57
2022/05/01 01:43:54;;;;;;;19.70;11.00;;;10.90;99.90;;;;;;5111647;28;20246;-57
2022/05/01 01:46:21;;;;;;;17.23;10.00;;;10.90;99.90;;;;;;5111399;28;20167;-58
2022/05/01 01:48:47;;;;;;;21.93;10.77;;;10.90;99.90;;;;;;5111170;28;20305;-56
2022/05/01 01:51:13;;;;;;;20.47;10.00;;;10.90;99.90;;;;;;5111286;28;20175;-56
2022/05/01 01:53:39;;;;;;;20.17;10.87;;;10.90;99.90;;;;;;5111385;28;20175;-57
2022/05/01 01:56:09;;;;;;;19.97;10.47;;;10.80;99.90;;;;;;5111540;28;20235;-56
2022/05/01 01:58:35;;;;;;;15.37;9.97;;;10.80;99.90;;;;;;5111243;28;20295;-56
2022/05/01 02:01:03;;;;;;;17.57;10.40;;;10.80;99.90;;;;;;5111383;28;20179;-57
2022/05/01 02:03:29;;;;;;;17.07;10.57;;;10.80;99.90;;;;;;5111185;28;20168;-56
2022/05/01 02:05:55;;;;;;;16.60;10.43;;;10.80;99.90;;;;;;5111058;28;20252;-57
2022/05/01 02:08:21;;;;;;;17.37;10.23;;;10.70;99.90;;;;;;5111536;28;20251;-56
2022/05/01 02:10:47;;;;;;;23.33;10.20;;;10.70;99.90;;;;;;5111156;28;20696;-57
2022/05/01 02:13:14;;;;;;;22.30;10.77;;;10.70;99.90;;;;;;5111252;28;20159;-56
2022/05/01 02:15:40;;;;;;;19.73;10.83;;;10.70;99.90;;;;;;5111132;28;20178;-56
2022/05/01 02:18:06;;;;;;;21.57;11.97;;;10.60;99.90;;;;;;5111142;28;20314;-56
2022/05/01 02:23:19;;;;;;;23.27;11.83;;;10.70;99.90;;;;;;5111141;28;20204;-57
2022/05/01 02:25:46;;;;;;;22.70;11.40;;;10.70;99.90;;;;;;5111050;28;20167;-56
2022/05/01 02:28:11;;;;;;;20.30;11.13;;;10.70;99.90;;;;;;5111104;28;20223;-56
2022/05/01 02:30:38;;;;;;;20.20;11.97;;;10.70;99.90;;;;;;5110948;28;20286;-56
2022/05/01 02:33:06;;;;;;;27.30;12.30;;;10.70;99.90;;;;;;5110817;28;20167;-56
2022/05/01 02:35:33;;;;;;;23.83;12.70;;;10.70;99.90;;;;;;5110935;28;20197;-56
2022/05/01 02:37:59;;;;;;;22.67;12.37;;;10.70;99.90;;;;;;5114612;28;20660;-57
2022/05/01 02:40:26;;;;;;;25.90;13.87;;;10.70;99.90;;;;;;5114690;28;20246;-57
2022/05/01 02:42:52;;;;;;;24.83;13.30;;;10.60;99.90;;;;;;5114576;28;20228;-57
2022/05/01 02:45:17;;;;;;;24.03;12.50;;;10.60;99.90;;;;;;5114525;28;20167;-57
2022/05/01 02:47:44;;;;;;;22.53;13.27;;;10.70;99.90;;;;;;5114718;28;20200;-57
2022/05/01 02:50:10;;;;;;;28.33;13.80;;;10.70;99.90;;;;;;5113938;28;20362;-57
2022/05/01 02:52:36;;;;;;;22.73;14.07;;;10.60;99.90;;;;;;5114458;28;20599;-57
2022/05/01 02:55:02;;;;;;;23.57;14.37;;;10.60;99.90;;;;;;5114366;28;20669;-57
2022/05/01 02:57:28;;;;;;;24.53;13.67;;;10.60;99.90;;;;;;5114350;28;20661;-57
2022/05/01 02:59:53;;;;;;;19.73;12.97;;;10.60;99.90;;;;;;5114217;28;20171;-57
2022/05/01 03:02:19;;;;;;;24.27;14.67;;;10.60;99.90;;;;;;5114208;28;20200;-57
2022/05/01 03:04:45;;;;;;;24.00;14.80;;;10.60;99.90;;;;;;5114033;28;20175;-57
2022/05/01 03:07:12;;;;;;;23.73;14.93;;;10.60;99.90;;;;;;5113994;28;20171;-57
2022/05/01 03:09:38;;;;;;;24.70;14.60;;;10.60;99.90;;;;;;5113954;28;20592;-57
2022/05/01 03:12:05;;;;;;;27.20;15.50;;;10.60;99.90;;;;;;5114033;27;20376;-57
2022/05/01 03:14:31;;;;;;;23.97;14.57;;;10.60;99.90;;;;;;5113911;28;20243;-57
2022/05/01 03:16:57;;;;;;;29.17;15.10;;;10.60;99.90;;;;;;5113948;28;20179;-57
2022/05/01 03:22:10;;;;;;;25.43;13.93;;;10.50;99.90;;;;;;5113838;28;20660;-57
2022/05/01 03:24:37;;;;;;;23.70;14.87;;;10.60;99.90;;;;;;5113829;27;20163;-57
2022/05/01 03:27:03;;;;;;;27.47;14.93;;;10.60;99.90;;;;;;5111380;28;20167;-57
2022/05/01 03:29:29;;;;;;;30.20;14.60;;;10.50;99.90;;;;;;5113532;27;20229;-57
2022/05/01 03:31:55;;;;;;;25.03;14.67;;;10.50;99.90;;;;;;5113500;28;20533;-57
2022/05/01 03:34:22;;;;;;;26.60;14.13;;;10.50;99.90;;;;;;5112263;28;20631;-57
2022/05/01 03:36:48;;;;;;;29.97;15.40;;;10.40;99.90;;;;;;5113470;28;20266;-57
2022/05/01 03:39:15;;;;;;;29.47;15.47;;;10.30;99.90;;;;;;5113485;28;20195;-57
2022/05/01 03:41:41;;;;;;;23.03;15.47;;;10.30;99.90;;;;;;5113454;27;20160;-57
2022/05/01 03:44:10;;;;;;;23.57;14.40;;;10.30;99.90;;;;;;5113490;28;20175;-57
2022/05/01 03:46:36;;;;;;;27.50;16.03;;;10.30;99.90;;;;;;5112555;28;20163;-57
2022/05/01 03:49:03;;;;;;;28.03;15.90;;;10.20;99.90;;;;;;5113021;28;20231;-57
2022/05/01 03:51:31;;;;;;;29.07;16.10;;;10.30;99.90;;;;;;5113059;28;20701;-57
2022/05/01 03:53:59;;;;;;;31.40;17.30;;;10.40;99.90;;;;;;5113023;28;20179;-57
2022/05/01 03:56:26;;;;;;;31.47;16.93;;;10.40;99.90;;;;;;5113133;28;20180;-57
2022/05/01 03:58:51;;;;;;;27.97;18.13;;;10.00;99.90;;;;;;5112820;28;20179;-57
2022/05/01 04:01:17;;;;;;;28.03;16.73;;;10.40;99.90;;;;;;5112804;28;20219;-57
2022/05/01 04:03:43;;;;;;;28.27;17.53;;;10.40;99.90;;;;;;5112810;28;20242;-57
2022/05/01 04:06:08;;;;;;;30.83;17.73;;;10.50;99.90;;;;;;5112716;28;20258;-57
2022/05/01 04:08:35;;;;;;;31.20;17.50;;;10.40;99.90;;;;;;5112467;28;20643;-57
2022/05/01 04:11:01;;;;;;;29.37;17.77;;;10.40;99.90;;;;;;5112832;28;20174;-58
2022/05/01 04:13:27;;;;;;;34.20;18.00;;;10.40;99.90;;;;;;5112760;28;20248;-57
2022/05/01 04:15:53;;;;;;;38.70;18.73;;;10.40;99.90;;;;;;5112774;28;20196;-57
2022/05/01 04:18:21;;;;;;;28.90;17.27;;;10.30;99.90;;;;;;5112472;28;20175;-57
2022/05/01 04:20:47;;;;;;;30.73;18.77;;;10.30;99.90;;;;;;5112514;28;20239;-57
2022/05/01 04:23:13;;;;;;;34.17;19.00;;;10.30;99.90;;;;;;5112353;28;20166;-57
2022/05/01 04:25:40;;;;;;;34.10;18.53;;;10.30;99.90;;;;;;5112198;28;20257;-57
2022/05/01 04:28:10;;;;;;;39.93;21.03;;;10.30;99.90;;;;;;5112271;28;20172;-57
2022/05/01 04:30:38;;;;;;;38.73;20.83;;;10.30;99.90;;;;;;5112102;28;20764;-57
2022/05/01 04:33:10;;;;;;;30.17;19.77;;;10.40;99.90;;;;;;5112258;28;20192;-57
2022/05/01 04:35:40;;;;;;;38.93;19.60;;;10.30;99.90;;;;;;5112122;28;20247;-57
2022/05/01 04:38:08;;;;;;;34.73;19.63;;;10.40;99.90;;;;;;5112058;28;20179;-57
2022/05/01 04:40:46;;;;;;;34.87;20.83;;;10.30;99.90;;;;;;5112082;28;20160;-57
2022/05/01 04:43:17;;;;;;;33.77;19.50;;;10.30;99.90;;;;;;5112168;28;20200;-57
2022/05/01 04:45:45;;;;;;;37.97;20.40;;;10.30;99.90;;;;;;5111981;28;20196;-57
2022/05/01 04:48:12;;;;;;;33.83;20.07;;;10.30;99.90;;;;;;5111777;28;20175;-57
2022/05/01 04:50:39;;;;;;;38.33;20.93;;;10.20;99.90;;;;;;5111824;28;20214;-57
2022/05/01 04:53:06;;;;;;;40.60;20.20;;;10.20;99.90;;;;;;5112020;28;20179;-57
2022/05/01 04:55:33;;;;;;;38.73;21.10;;;10.20;99.90;;;;;;5112080;28;20226;-57
2022/05/01 04:57:59;;;;;;;39.23;20.97;;;10.30;99.90;;;;;;5111797;28;20203;-57
2022/05/01 05:00:26;;;;;;;35.73;21.83;;;10.30;99.90;;;;;;5111703;28;20163;-57
2022/05/01 05:02:54;;;;;;;36.23;19.10;;;10.30;99.90;;;;;;5111701;28;20652;-57
2022/05/01 05:05:21;;;;;;;32.33;20.03;;;10.30;99.90;;;;;;5111843;28;20270;-57
2022/05/01 05:07:47;;;;;;;31.57;18.67;;;10.30;99.90;;;;;;5111852;28;20178;-57
2022/05/01 05:10:14;;;;;;;35.87;20.23;;;10.40;99.90;;;;;;5111592;28;20257;-57
2022/05/01 05:12:42;;;;;;;31.20;19.17;;;10.40;99.90;;;;;;5111531;28;20285;-57
2022/05/01 05:15:15;;;;;;;37.63;19.43;;;10.30;99.90;;;;;;5111575;28;20454;-57
2022/05/01 05:17:41;;;;;;;30.63;18.97;;;10.30;99.90;;;;;;5111418;28;20253;-57
2022/05/01 05:20:09;;;;;;;34.70;20.07;;;10.20;99.90;;;;;;5111439;28;20163;-57
2022/05/01 05:22:35;;;;;;;33.23;20.07;;;10.30;99.90;;;;;;5111358;28;20178;-57
2022/05/01 05:25:02;;;;;;;38.83;21.53;;;10.30;99.90;;;;;;5111394;28;20175;-57
2022/05/01 05:27:27;;;;;;;36.20;20.53;;;10.30;99.90;;;;;;5111512;28;20249;-57
2022/05/01 05:29:57;;;;;;;38.20;21.53;;;10.30;99.90;;;;;;5111342;28;20286;-57
2022/05/01 05:32:24;;;;;;;34.80;20.30;;;10.30;99.90;;;;;;5111349;28;20237;-57
2022/05/01 05:34:51;;;;;;;37.87;20.97;;;10.30;99.90;;;;;;5109488;28;20253;-57
2022/05/01 05:37:18;;;;;;;38.03;20.57;;;10.40;99.90;;;;;;5111250;28;20179;-57
2022/05/01 05:39:44;;;;;;;35.67;20.27;;;10.40;99.90;;;;;;5111287;28;20171;-57
2022/05/01 05:42:10;;;;;;;34.30;19.60;;;10.40;99.90;;;;;;5111294;28;20262;-57
2022/05/01 05:44:37;;;;;;;35.53;19.63;;;10.40;99.90;;;;;;5111205;28;20283;-58
2022/05/01 05:47:03;;;;;;;35.87;21.20;;;10.40;99.90;;;;;;5111242;28;20175;-57
2022/05/01 05:49:28;;;;;;;34.43;19.87;;;10.40;99.90;;;;;;5110994;28;20641;-58
2022/05/01 05:51:54;;;;;;;34.20;20.37;;;10.40;99.90;;;;;;5111317;28;20209;-57
2022/05/01 05:54:20;;;;;;;37.60;20.77;;;10.40;99.90;;;;;;5111131;28;20250;-57
2022/05/01 05:56:46;;;;;;;31.63;19.77;;;10.30;99.90;;;;;;5111074;28;20175;-57
2022/05/01 05:59:11;;;;;;;34.07;20.53;;;10.30;99.90;;;;;;5111074;28;20216;-58
2022/05/01 06:01:38;;;;;;;34.73;19.43;;;10.30;99.90;;;;;;5111026;28;20564;-58
2022/05/01 06:04:04;;;;;;;34.77;20.13;;;10.30;99.90;;;;;;5109887;28;20168;-58
2022/05/01 06:06:30;;;;;;;34.50;20.70;;;10.40;99.90;;;;;;5111098;28;20223;-58
2022/05/01 06:08:56;;;;;;;37.50;22.17;;;10.40;99.90;;;;;;5111152;28;20171;-58
2022/05/01 06:11:21;;;;;;;34.53;20.67;;;10.40;99.90;;;;;;5113869;28;20194;-57
2022/05/01 06:13:47;;;;;;;37.57;21.50;;;10.40;99.90;;;;;;5114950;28;20164;-58
2022/05/01 06:16:13;;;;;;;37.23;20.93;;;10.40;99.90;;;;;;5114939;28;20246;-58
2022/05/01 06:18:39;;;;;;;43.67;22.43;;;10.50;99.90;;;;;;5114952;28;20293;-58
2022/05/01 06:21:05;;;;;;;36.47;21.87;;;10.40;99.90;;;;;;5114984;28;20644;-59
2022/05/01 06:23:30;;;;;;;35.30;22.00;;;10.40;99.90;;;;;;5114927;28;20206;-58
2022/05/01 06:25:56;;;;;;;39.93;22.97;;;10.50;99.90;;;;;;5114759;28;20574;-58
2022/05/01 06:28:22;;;;;;;33.83;21.57;;;10.40;99.90;;;;;;5114645;28;20214;-58
2022/05/01 06:30:51;;;;;;;35.53;21.73;;;10.40;99.90;;;;;;5114733;28;20657;-58
2022/05/01 06:33:20;;;;;;;36.73;22.07;;;10.40;99.90;;;;;;5114660;28;20199;-58
2022/05/01 06:35:50;;;;;;;41.43;23.50;;;10.40;99.90;;;;;;5114731;28;20235;-58
2022/05/01 06:38:16;;;;;;;33.60;21.47;;;10.50;99.90;;;;;;5114556;28;20250;-58
2022/05/01 06:40:43;;;;;;;36.10;21.47;;;10.50;99.90;;;;;;5114408;28;20175;-58
2022/05/01 06:43:10;;;;;;;36.03;22.63;;;10.50;99.90;;;;;;5114331;28;20543;-58
2022/05/01 06:45:36;;;;;;;36.23;20.23;;;10.40;99.90;;;;;;5114329;28;20634;-58
2022/05/01 06:48:02;;;;;;;34.80;20.93;;;10.50;99.90;;;;;;5114303;28;20249;-58
2022/05/01 06:50:29;;;;;;;35.77;22.07;;;10.50;99.90;;;;;;5114103;28;20720;-58
2022/05/01 06:52:55;;;;;;;34.97;20.10;;;10.50;99.90;;;;;;5114318;28;20167;-58
2022/05/01 06:55:25;;;;;;;36.63;21.67;;;10.50;99.90;;;;;;5114157;28;20186;-58
2022/05/01 06:57:52;;;;;;;38.33;21.70;;;10.50;99.90;;;;;;5114418;28;20195;-58
2022/05/01 07:00:18;;;;;;;33.33;21.27;;;10.50;99.90;;;;;;5114271;28;20320;-58
2022/05/01 07:02:48;;;;;;;41.40;23.13;;;10.60;99.90;;;;;;5114038;28;20584;-58
2022/05/01 07:05:15;;;;;;;37.27;20.77;;;10.70;99.90;;;;;;5114045;28;20193;-59
2022/05/01 07:07:40;;;;;;;34.27;20.13;;;10.70;99.90;;;;;;5113995;28;20167;-58
2022/05/01 07:10:08;;;;;;;36.60;21.23;;;10.60;99.90;;;;;;5113716;28;20345;-59
2022/05/01 07:12:34;;;;;;;38.93;20.27;;;10.60;99.90;;;;;;5113998;28;20216;-59
2022/05/01 07:15:00;;;;;;;32.53;18.73;;;10.70;99.90;;;;;;5112626;28;20794;-58
2022/05/01 07:17:26;;;;;;;26.10;15.40;;;10.40;99.90;;;;;;5113711;28;20164;-58
2022/05/01 07:19:52;;;;;;;27.43;16.37;;;10.50;99.90;;;;;;5113814;28;20228;-59
2022/05/01 07:22:18;;;;;;;22.57;15.83;;;10.60;99.90;;;;;;5112509;28;20527;-58
2022/05/01 07:24:43;;;;;;;23.23;15.60;;;10.50;99.90;;;;;;5113570;28;20198;-58
2022/05/01 07:27:09;;;;;;;26.63;15.37;;;10.50;99.90;;;;;;5113661;28;20674;-58
2022/05/01 07:29:35;;;;;;;21.00;14.03;;;10.50;99.90;;;;;;5113400;28;20206;-58
2022/05/01 07:32:01;;;;;;;22.33;14.47;;;10.50;99.90;;;;;;5113506;28;20167;-58
2022/05/01 07:34:27;;;;;;;22.07;13.33;;;10.70;99.90;;;;;;5113406;28;20174;-56
2022/05/01 07:36:53;;;;;;;22.50;12.07;;;10.70;99.90;;;;;;5113214;28;20167;-56
2022/05/01 07:39:19;;;;;;;16.10;11.47;;;10.70;99.90;;;;;;5113335;28;20190;-56
2022/05/01 07:41:44;;;;;;;19.73;11.97;;;10.60;99.90;;;;;;5113231;28;20175;-56
2022/05/01 07:44:11;;;;;;;17.27;10.00;;;10.70;99.90;;;;;;5113161;28;20175;-58
2022/05/01 07:46:38;;;;;;;17.53;10.17;;;10.70;99.90;;;;;;5113119;28;20162;-58
2022/05/01 07:49:08;;;;;;;14.67;9.60;;;10.70;99.90;;;;;;5112803;28;20234;-56
2022/05/01 07:51:34;;;;;;;19.00;10.40;;;10.60;99.90;;;;;;5111089;28;20638;-58
2022/05/01 07:54:01;;;;;;;21.50;10.33;;;10.60;99.90;;;;;;5112787;28;20167;-58
2022/05/01 07:56:28;;;;;;;16.00;10.50;;;10.60;99.90;;;;;;5113054;28;20198;-58
2022/05/01 07:58:54;;;;;;;18.33;10.63;;;10.60;99.90;;;;;;5112936;28;20232;-58
2022/05/01 08:01:21;;;;;;;18.37;11.27;;;10.60;99.90;;;;;;5112863;28;20706;-58
2022/05/01 08:06:31;;;;;;;18.70;12.23;;;10.50;99.90;;;;;;5112948;28;20178;-58
2022/05/01 08:08:57;;;;;;;21.33;12.83;;;10.60;99.90;;;;;;5112600;28;20170;-58
2022/05/01 08:11:23;;;;;;;18.83;11.87;;;10.50;99.90;;;;;;5112600;28;20163;-56
2022/05/01 08:13:49;;;;;;;21.50;12.10;;;10.50;99.90;;;;;;5112689;28;20168;-56
2022/05/01 08:16:17;;;;;;;20.97;12.40;;;10.50;99.90;;;;;;5112614;28;20691;-58
2022/05/01 08:21:31;;;;;;;22.03;12.33;;;10.50;99.90;;;;;;5112712;28;20186;-59
2022/05/01 08:23:56;;;;;;;21.00;12.60;;;10.50;99.90;;;;;;5112520;28;20671;-58
2022/05/01 08:26:23;;;;;;;19.00;11.37;;;10.40;99.90;;;;;;5112352;28;20178;-58
2022/05/01 08:28:53;;;;;;;20.90;12.50;;;10.40;99.90;;;;;;5112280;28;20224;-58
2022/05/01 08:31:19;;;;;;;24.60;12.67;;;10.30;99.90;;;;;;5112328;28;20171;-58
2022/05/01 08:33:45;;;;;;;23.33;12.77;;;10.30;99.90;;;;;;5111929;28;20645;-58
2022/05/01 08:36:11;;;;;;;21.43;12.77;;;10.10;99.90;;;;;;5112253;28;20223;-58
2022/05/01 08:38:37;;;;;;;23.43;12.50;;;10.20;99.90;;;;;;5112183;28;20537;-58
2022/05/01 08:41:05;;;;;;;19.80;12.00;;;10.20;99.90;;;;;;5112170;28;20159;-58
2022/05/01 08:43:31;;;;;;;19.70;12.03;;;10.20;99.90;;;;;;5111937;28;20171;-58
2022/05/01 08:46:19;;;;;;;24.70;13.17;;;10.20;99.90;;;;;;5110515;28;20572;-58
2022/05/01 08:48:56;;;;;;;23.37;13.47;;;10.30;99.90;;;;;;5111876;28;20238;-58
2022/05/01 08:51:23;;;;;;;24.83;14.27;;;10.30;99.90;;;;;;5111974;28;20171;-58
2022/05/01 08:53:50;;;;;;;21.97;13.23;;;10.30;99.90;;;;;;5111855;28;20163;-58
2022/05/01 08:56:17;;;;;;;24.97;14.03;;;10.40;99.90;;;;;;5111811;28;20159;-58
2022/05/01 08:58:43;;;;;;;24.67;14.80;;;10.40;99.90;;;;;;5111905;28;20174;-58
2022/05/01 09:01:09;;;;;;;25.57;14.93;;;10.30;99.90;;;;;;5111693;28;20511;-58
2022/05/01 09:03:36;;;;;;;23.63;14.17;;;10.40;99.90;;;;;;5111725;28;20229;-58
2022/05/01 09:06:02;;;;;;;24.47;14.27;;;10.30;99.90;;;;;;5111621;28;20206;-58
2022/05/01 09:08:29;;;;;;;23.70;13.80;;;10.40;99.90;;;;;;5111642;28;20202;-58
2022/05/01 09:10:55;;;;;;;24.00;14.30;;;10.30;99.90;;;;;;5111447;28;20271;-58
2022/05/01 09:13:25;;;;;;;24.07;14.37;;;10.30;99.90;;;;;;5111577;28;20228;-58
2022/05/01 09:15:51;;;;;;;24.20;14.03;;;10.30;99.90;;;;;;5111563;28;20168;-59
2022/05/01 09:18:18;;;;;;;25.67;14.33;;;10.40;99.90;;;;;;5111550;28;20182;-58
2022/05/01 09:21:04;;;;;;;25.17;14.43;;;10.40;99.90;;;;;;5111397;28;20179;-58
2022/05/01 09:24:05;;;;;;;29.87;15.40;;;10.30;99.90;;;;;;5111210;28;20167;-58
2022/05/01 09:26:37;;;;;;;21.83;13.63;;;10.40;99.90;;;;;;5111239;28;20174;-59
2022/05/01 09:29:02;;;;;;;31.33;15.33;;;10.40;99.90;;;;;;5111195;28;20163;-56
2022/05/01 09:31:44;;;;;;;25.33;15.37;;;10.50;99.90;;;;;;5111149;28;20171;-56
2022/05/01 09:34:29;;;;;;;30.70;14.93;;;10.50;99.90;;;;;;5111390;28;20194;-57
2022/05/01 09:37:18;;;;;;;21.90;13.23;;;10.40;99.90;;;;;;5111194;28;20179;-57
2022/05/01 09:39:49;;;;;;;25.07;12.97;;;10.50;99.90;;;;;;5111207;28;20175;-57
2022/05/01 09:42:18;;;;;;;19.47;12.57;;;10.50;99.90;;;;;;5111118;28;20175;-57
2022/05/01 09:45:02;;;;;;;18.07;11.83;;;10.50;99.90;;;;;;5111556;28;20163;-58
2022/05/01 09:47:38;;;;;;;19.63;12.17;;;10.60;99.90;;;;;;5115417;28;20274;-58
2022/05/01 09:50:05;;;;;;;24.93;12.60;;;10.60;99.90;;;;;;5115045;28;20226;-58
2022/05/01 09:53:00;;;;;;;23.03;11.80;;;10.70;99.90;;;;;;5115220;28;20574;-58
2022/05/01 09:55:27;;;;;;;19.43;12.43;;;10.70;99.90;;;;;;5115292;28;20171;-58
2022/05/01 09:58:11;;;;;;;18.50;11.97;;;10.90;99.90;;;;;;5115292;28;20171;-58
2022/05/01 10:00:40;;;;;;;19.87;11.87;;;11.00;99.90;;;;;;5115118;28;20171;-58
2022/05/01 10:03:46;;;;;;;19.43;12.67;;;11.10;99.90;;;;;;5114919;28;20183;-59
2022/05/01 10:06:16;;;;;;;18.13;12.10;;;11.10;99.90;;;;;;5084221;28;20187;-59
2022/05/01 10:08:44;;;;;;;22.27;12.57;;;11.20;99.90;;;;;;5112871;27;20175;-58
2022/05/01 10:11:17;;;;;;;23.73;13.33;;;11.20;99.90;;;;;;5103597;28;20728;-58
2022/05/01 10:13:45;;;;;;;21.63;12.67;;;11.20;99.90;;;;;;5114915;28;20184;-58
2022/05/01 10:16:15;;;;;;;24.60;14.00;;;11.10;99.90;;;;;;5114779;28;20167;-58
2022/05/01 10:18:42;;;;;;;19.80;12.60;;;11.20;99.90;;;;;;5114770;28;20171;-58
2022/05/01 10:21:08;;;;;;;21.80;11.43;;;11.00;99.90;;;;;;5114862;28;20168;-58
2022/05/01 10:23:35;;;;;;;21.07;12.43;;;11.00;99.90;;;;;;5114647;28;20633;-58
2022/05/01 10:26:00;;;;;;;20.60;13.23;;;11.10;99.90;;;;;;5114668;28;20621;-58
2022/05/01 10:28:54;;;;;;;23.00;12.50;;;11.10;99.90;;;;;;5114583;28;20182;-58
2022/05/01 10:32:21;;;;;;;18.50;13.13;;;11.10;99.90;;;;;;5114528;28;20179;-57
2022/05/01 10:35:13;;;;;;;19.63;12.13;;;11.30;99.90;;;;;;5114489;28;20175;-57
2022/05/01 10:38:05;;;;;;;18.73;11.90;;;11.40;99.90;;;;;;5114510;28;20172;-57
2022/05/01 10:40:39;;;;;;;18.63;11.27;;;11.40;99.90;;;;;;5114282;28;20187;-57
2022/05/01 10:43:37;;;;;;;17.63;10.50;;;11.40;99.90;;;;;;5114331;27;20175;-56
2022/05/01 10:46:21;;;;;;;20.87;12.10;;;11.30;99.90;;;;;;5098505;28;20214;-57
2022/05/01 10:48:48;;;;;;;20.30;12.77;;;11.30;99.90;;;;;;5113990;28;20229;-58
2022/05/01 10:51:47;;;;;;;20.33;12.13;;;11.20;99.90;;;;;;5114131;27;20685;-57
2022/05/01 10:54:15;;;;;;;21.97;14.07;;;11.30;99.90;;;;;;5107573;28;20262;-57
2022/05/01 10:56:42;;;;;;;20.73;12.43;;;11.40;99.90;;;;;;5113805;28;20269;-57
2022/05/01 10:59:29;;;;;;;24.70;13.23;;;11.30;99.90;;;;;;5113892;28;20174;-58
2022/05/01 11:01:59;;;;;;;22.57;12.17;;;11.40;99.90;;;;;;5113803;27;20172;-57
2022/05/01 11:04:26;;;;;;;22.13;14.63;;;11.30;99.90;;;;;;5113886;28;20250;-57
2022/05/01 11:06:57;;;;;;;26.17;15.10;;;11.30;99.90;;;;;;5113984;28;20163;-57
2022/05/01 11:09:24;;;;;;;25.83;14.80;;;11.30;99.90;;;;;;5113636;28;20203;-57
2022/05/01 11:12:09;;;;;;;21.17;13.60;;;11.30;99.90;;;;;;5113738;28;20175;-57
2022/05/01 11:14:38;;;;;;;23.33;14.63;;;11.30;99.90;;;;;;5113773;28;20159;-57
2022/05/01 11:17:05;;;;;;;23.63;15.53;;;11.40;99.90;;;;;;5113780;28;20175;-58
2022/05/01 11:19:44;;;;;;;25.07;15.43;;;11.40;99.90;;;;;;5113565;28;20734;-57
2022/05/01 11:22:14;;;;;;;24.10;15.07;;;11.50;99.90;;;;;;5112715;28;20175;-58
2022/05/01 11:24:44;;;;;;;28.03;15.27;;;11.50;99.90;;;;;;5113449;28;20175;-57
2022/05/01 11:27:15;;;;;;;24.47;15.07;;;11.50;99.90;;;;;;5113514;28;20155;-58
2022/05/01 11:30:07;;;;;;;21.43;14.03;;;11.40;99.90;;;;;;5113439;28;20242;-57
2022/05/01 11:32:46;;;;;;;23.57;15.33;;;11.30;99.90;;;;;;5102330;28;20658;-57
2022/05/01 11:35:12;;;;;;;23.00;14.90;;;11.40;99.90;;;;;;5113383;28;20187;-57
2022/05/01 11:38:08;;;;;;;23.03;15.00;;;11.40;99.90;;;;;;5113227;28;20202;-57
2022/05/01 11:40:34;;;;;;;27.53;16.20;;;11.40;99.90;;;;;;5113300;28;20205;-57
2022/05/01 11:43:20;;;;;;;27.53;15.90;;;11.40;99.90;;;;;;5113213;28;20663;-57
2022/05/01 11:45:47;;;;;;;28.83;16.10;;;11.40;99.90;;;;;;5113319;28;20206;-57
2022/05/01 11:48:18;;;;;;;24.57;15.40;;;11.40;99.90;;;;;;5113034;28;20171;-57
2022/05/01 11:50:45;;;;;;;23.73;15.87;;;11.10;99.90;;;;;;5112979;28;20583;-57
2022/05/01 11:53:22;;;;;;;30.47;17.07;;;11.20;99.90;;;;;;5113039;28;20167;-58
2022/05/01 12:04:30;;;;;;;24.53;16.47;;;11.10;99.90;;;;;;5113051;28;20182;-58
2022/05/01 12:07:00;;;;;;;27.00;16.70;;;11.10;99.90;;;;;;5112747;28;20178;-57
2022/05/01 12:09:26;;;;;;;29.60;16.87;;;11.10;99.90;;;;;;5111974;28;20294;-58
2022/05/01 12:11:52;;;;;;;27.03;16.90;;;11.10;99.90;;;;;;5112614;28;20200;-58
2022/05/01 12:14:18;;;;;;;29.57;18.30;;;11.10;99.90;;;;;;5112355;28;20171;-58
2022/05/01 12:16:45;;;;;;;28.40;17.67;;;11.20;99.90;;;;;;5112574;28;20179;-58
2022/05/01 12:19:11;;;;;;;29.47;18.83;;;11.10;99.90;;;;;;5112346;28;20175;-57
2022/05/01 12:21:37;;;;;;;27.43;18.90;;;11.00;99.90;;;;;;5112404;28;20171;-58
2022/05/01 12:24:08;;;;;;;33.30;20.00;;;11.10;99.90;;;;;;5110118;28;20791;-58
2022/05/01 12:26:37;;;;;;;29.97;20.07;;;11.10;99.90;;;;;;5111856;28;20233;-58
2022/05/01 12:29:08;;;;;;;34.30;20.37;;;11.10;99.90;;;;;;5112002;28;20954;-57
2022/05/01 12:31:54;;;;;;;38.23;21.50;;;11.10;99.90;;;;;;5112209;28;20175;-58
2022/05/01 12:34:24;;;;;;;35.33;20.93;;;11.00;99.90;;;;;;5111876;28;20189;-58
2022/05/01 12:36:57;;;;;;;31.27;19.33;;;11.20;99.90;;;;;;5112070;28;20175;-58
2022/05/01 12:39:24;;;;;;;31.07;19.73;;;11.20;99.90;;;;;;5112126;28;20170;-58
2022/05/01 12:45:10;;;;;;;31.60;19.40;;;11.30;99.90;;;;;;5091695;28;20194;-57
2022/05/01 12:47:42;;;;;;;31.07;19.33;;;11.30;99.90;;;;;;5091393;28;20179;-57
2022/05/01 12:50:24;;;;;;;31.67;18.97;;;11.40;99.90;;;;;;5089996;28;20228;-59
2022/05/01 12:52:53;;;;;;;27.70;18.73;;;11.60;99.90;;;;;;5091438;28;20241;-57
2022/05/01 12:55:21;;;;;;;33.60;19.30;;;11.50;99.90;;;;;;5091449;28;20180;-57
2022/05/01 12:57:52;;;;;;;29.67;18.80;;;11.60;99.90;;;;;;5091367;28;20182;-58
2022/05/01 13:00:34;;;;;;;29.07;18.20;;;11.50;99.90;;;;;;5091318;28;20236;-58
2022/05/01 13:03:20;;;;;;;30.30;19.13;;;11.40;99.90;;;;;;5091419;28;20175;-57
2022/05/01 13:06:11;;;;;;;32.93;20.17;;;11.50;99.90;;;;;;5091301;28;20634;-57